Time;durP1;ratioP1;P1;durP2;ratioP2;P2;SDS_P1;SDS_P2;PMS_P1;PMS_P2;Temp;Humidity;BMP_temperature;BMP_pressure;BME280_temperature;BME280_humidity;BME280_pressure;Samples;Min_cycle;Max_cycle;Signal;HPM_P1;HPM_P2
2021/10/10 00:00:38;;;;;;;3.17;2.88;;;;;;;;;;5036140;28;20084;-73
2021/10/10 00:03:05;;;;;;;4.07;2.80;;;;;;;;;;5053921;28;20060;-73
2021/10/10 00:05:33;;;;;;;3.00;2.50;;;;;;;;;;5019101;28;20047;-73
2021/10/10 00:08:01;;;;;;;3.15;2.65;;;;;;;;;;5053190;28;20044;-72
2021/10/10 00:10:30;;;;;;;5.57;2.95;;;;;;;;;;5053433;28;20460;-74
2021/10/10 00:12:58;;;;;;;4.00;2.67;;;;;;;;;;5053617;28;20405;-74
2021/10/10 00:15:26;;;;;;;3.47;2.75;;;;;;;;;;5053506;28;20045;-73
2021/10/10 00:17:54;;;;;;;2.92;2.63;;;;;;;;;;5053522;28;20036;-73
2021/10/10 00:20:21;;;;;;;6.25;3.30;;;;;;;;;;5038290;28;20064;-72
2021/10/10 00:22:49;;;;;;;3.13;2.83;;;;;;;;;;5031585;28;20496;-73
2021/10/10 00:25:16;;;;;;;3.45;2.60;;;;;;;;;;5033706;28;20415;-74
2021/10/10 00:27:44;;;;;;;3.25;2.60;;;;;;;;;;5015538;28;20049;-73
2021/10/10 00:30:11;;;;;;;3.55;2.53;;;;;;;;;;5032868;28;20049;-73
2021/10/10 00:32:39;;;;;;;3.95;2.40;;;;;;;;;;5033333;28;20037;-74
2021/10/10 00:35:07;;;;;;;2.60;2.40;;;;;;;;;;5032748;28;20121;-73
2021/10/10 00:37:34;;;;;;;2.85;2.53;;;;;;;;;;5033344;28;20084;-74
2021/10/10 00:40:03;;;;;;;6.03;2.60;;;;;;;;;;5033580;28;20061;-73
2021/10/10 00:42:30;;;;;;;3.00;2.72;;;;;;;;;;5033186;28;20492;-74
2021/10/10 00:44:57;;;;;;;3.80;2.58;;;;;;;;;;5033153;28;20459;-73
2021/10/10 00:47:25;;;;;;;2.42;2.22;;;;;;;;;;5032749;28;20049;-73
2021/10/10 00:49:52;;;;;;;2.80;2.45;;;;;;;;;;5032355;28;20053;-73
2021/10/10 00:52:21;;;;;;;5.43;2.70;;;;;;;;;;5032910;28;20048;-74
2021/10/10 00:54:50;;;;;;;2.97;2.42;;;;;;;;;;5033007;28;20356;-73
2021/10/10 00:57:19;;;;;;;4.47;2.47;;;;;;;;;;5032794;28;20554;-73
2021/10/10 00:59:46;;;;;;;3.58;2.60;;;;;;;;;;5033049;28;20060;-74
2021/10/10 01:02:14;;;;;;;3.88;2.80;;;;;;;;;;5032907;28;20045;-73
2021/10/10 01:04:42;;;;;;;6.18;2.80;;;;;;;;;;5014633;28;20136;-74
2021/10/10 01:07:09;;;;;;;4.07;2.70;;;;;;;;;;5033029;28;20077;-75
2021/10/10 01:09:37;;;;;;;3.13;2.70;;;;;;;;;;5032383;28;20045;-73
2021/10/10 01:12:05;;;;;;;2.70;2.50;;;;;;;;;;5032790;28;20042;-74
2021/10/10 01:14:33;;;;;;;2.92;2.65;;;;;;;;;;5032757;28;20069;-73
2021/10/10 01:17:01;;;;;;;3.80;2.80;;;;;;;;;;5014873;28;20051;-74
2021/10/10 01:19:32;;;;;;;4.22;2.60;;;;;;;;;;5032729;28;20400;-74
2021/10/10 01:22:00;;;;;;;6.00;2.90;;;;;;;;;;5032861;28;20132;-73
2021/10/10 01:24:28;;;;;;;4.80;3.08;;;;;;;;;;5015270;28;20136;-74
2021/10/10 01:26:55;;;;;;;2.85;2.60;;;;;;;;;;5032752;28;20479;-75
2021/10/10 01:29:23;;;;;;;5.82;2.80;;;;;;;;;;5032629;28;20037;-74
2021/10/10 01:31:51;;;;;;;3.67;2.75;;;;;;;;;;5032743;28;20038;-74
2021/10/10 01:34:18;;;;;;;4.65;3.03;;;;;;;;;;5032039;28;20046;-74
2021/10/10 01:36:46;;;;;;;3.25;2.50;;;;;;;;;;5032702;28;20129;-73
2021/10/10 01:39:13;;;;;;;2.90;2.60;;;;;;;;;;5032718;28;20038;-73
2021/10/10 01:41:41;;;;;;;2.92;2.72;;;;;;;;;;5032532;28;20041;-74
2021/10/10 01:44:14;;;;;;;2.92;2.50;;;;;;;;;;5032734;28;20065;-75
2021/10/10 01:46:42;;;;;;;3.38;2.80;;;;;;;;;;5014899;28;20121;-74
2021/10/10 01:49:11;;;;;;;5.40;2.90;;;;;;;;;;5032034;28;20038;-74
2021/10/10 01:51:38;;;;;;;4.05;2.60;;;;;;;;;;5032553;28;20144;-74
2021/10/10 01:54:06;;;;;;;3.25;2.33;;;;;;;;;;5032499;28;20048;-74
2021/10/10 01:56:33;;;;;;;2.70;2.50;;;;;;;;;;5015009;28;20046;-73
2021/10/10 01:59:01;;;;;;;3.30;2.50;;;;;;;;;;5032376;28;20041;-74
2021/10/10 02:01:28;;;;;;;2.75;2.50;;;;;;;;;;5014511;28;20049;-73
2021/10/10 02:03:56;;;;;;;2.60;2.40;;;;;;;;;;5032379;28;20107;-74
2021/10/10 02:06:24;;;;;;;2.53;2.33;;;;;;;;;;5014877;28;20042;-73
2021/10/10 02:08:51;;;;;;;2.63;2.42;;;;;;;;;;5014562;28;20403;-73
2021/10/10 02:11:19;;;;;;;4.50;2.63;;;;;;;;;;5032207;28;20125;-74
2021/10/10 02:13:47;;;;;;;3.60;2.50;;;;;;;;;;5014563;28;20453;-74
2021/10/10 02:16:14;;;;;;;3.95;2.67;;;;;;;;;;5032280;28;20148;-74
2021/10/10 02:18:42;;;;;;;3.10;2.80;;;;;;;;;;5032257;28;20107;-74
2021/10/10 02:21:09;;;;;;;8.73;2.72;;;;;;;;;;5033466;28;20040;-74
2021/10/10 02:23:37;;;;;;;5.43;2.70;;;;;;;;;;5018366;28;20127;-74
2021/10/10 02:26:04;;;;;;;3.28;2.80;;;;;;;;;;5035478;28;20037;-74
2021/10/10 02:28:33;;;;;;;4.82;2.92;;;;;;;;;;5035405;28;20045;-73
2021/10/10 02:31:01;;;;;;;6.70;2.72;;;;;;;;;;5017148;28;20042;-74
2021/10/10 02:33:28;;;;;;;2.50;2.30;;;;;;;;;;5035427;28;20045;-74
2021/10/10 02:35:56;;;;;;;3.47;3.13;;;;;;;;;;5017843;28;20046;-74
2021/10/10 02:38:23;;;;;;;2.70;2.50;;;;;;;;;;5001868;28;20049;-74
2021/10/10 02:40:51;;;;;;;2.70;2.45;;;;;;;;;;5017961;28;20046;-73
2021/10/10 02:43:19;;;;;;;3.63;2.53;;;;;;;;;;5035424;28;20051;-73
2021/10/10 02:45:49;;;;;;;7.43;5.43;;;;;;;;;;5017455;28;20034;-73
2021/10/10 02:48:17;;;;;;;3.88;3.47;;;;;;;;;;5035351;28;20049;-74
2021/10/10 02:50:46;;;;;;;3.33;3.03;;;;;;;;;;5035205;28;20060;-73
2021/10/10 02:53:13;;;;;;;4.53;3.00;;;;;;;;;;5017637;28;20116;-73
2021/10/10 02:55:41;;;;;;;4.03;2.95;;;;;;;;;;5035176;28;20041;-73
2021/10/10 02:58:08;;;;;;;2.83;2.63;;;;;;;;;;5022384;28;20045;-73
2021/10/10 03:00:36;;;;;;;3.17;2.88;;;;;;;;;;5034025;28;20128;-73
2021/10/10 03:03:04;;;;;;;3.72;3.38;;;;;;;;;;5035182;28;20049;-73
2021/10/10 03:05:32;;;;;;;4.00;3.60;;;;;;;;;;5035174;28;20073;-73
2021/10/10 03:07:59;;;;;;;6.32;3.25;;;;;;;;;;5034589;28;20079;-73
2021/10/10 03:10:27;;;;;;;3.58;3.13;;;;;;;;;;5034784;28;20033;-73
2021/10/10 03:12:54;;;;;;;6.55;3.38;;;;;;;;;;5034881;28;20060;-73
2021/10/10 03:15:22;;;;;;;4.22;3.40;;;;;;;;;;5034011;28;20124;-74
2021/10/10 03:17:49;;;;;;;5.63;3.38;;;;;;;;;;5034753;28;20391;-73
2021/10/10 03:20:16;;;;;;;4.97;3.20;;;;;;;;;;5017230;28;20140;-73
2021/10/10 03:22:44;;;;;;;4.05;3.65;;;;;;;;;;5034782;28;20053;-73
2021/10/10 03:25:11;;;;;;;7.45;3.80;;;;;;;;;;5034802;28;20041;-73
2021/10/10 03:27:39;;;;;;;7.63;3.92;;;;;;;;;;5016551;28;20049;-73
2021/10/10 03:30:09;;;;;;;5.15;4.15;;;;;;;;;;5034013;28;20049;-74
2021/10/10 03:32:36;;;;;;;8.38;4.28;;;;;;;;;;5034551;28;20437;-73
2021/10/10 03:35:04;;;;;;;4.70;3.45;;;;;;;;;;5034550;28;20046;-74
2021/10/10 03:37:35;;;;;;;5.05;3.50;;;;;;;;;;5033709;28;20529;-74
2021/10/10 03:40:04;;;;;;;3.10;2.80;;;;;;;;;;5034540;28;20045;-74
2021/10/10 03:42:32;;;;;;;2.83;2.50;;;;;;;;;;5034298;28;20073;-74
2021/10/10 03:44:59;;;;;;;4.78;2.67;;;;;;;;;;5033465;28;20534;-73
2021/10/10 03:47:26;;;;;;;2.80;2.38;;;;;;;;;;5033864;28;20041;-74
2021/10/10 03:49:54;;;;;;;4.28;2.38;;;;;;;;;;5033878;28;20037;-73
2021/10/10 03:52:22;;;;;;;5.40;2.47;;;;;;;;;;4999986;28;20048;-73
2021/10/10 03:57:37;;;;;;;3.17;1.90;;;;;;;;;;5033507;28;20041;-74
2021/10/10 04:00:08;;;;;;;4.10;2.25;;;;;;;;;;5016554;28;20053;-73
2021/10/10 04:02:42;;;;;;;2.47;2.28;;;;;;;;;;5033964;28;20139;-74
2021/10/10 04:07:44;;;;;;;4.93;1.88;;;;;;;;;;5033634;28;20510;-75
2021/10/10 04:10:12;;;;;;;3.65;2.10;;;;;;;;;;5033496;28;20502;-74
2021/10/10 04:12:39;;;;;;;6.20;2.08;;;;;;;;;;5033486;28;20037;-74
2021/10/10 04:15:08;;;;;;;4.45;2.47;;;;;;;;;;5033415;28;20069;-74
2021/10/10 04:17:36;;;;;;;3.35;2.10;;;;;;;;;;5034004;28;20127;-73
2021/10/10 04:20:04;;;;;;;2.97;2.10;;;;;;;;;;5033547;28;20051;-73
2021/10/10 04:22:31;;;;;;;2.42;2.22;;;;;;;;;;5034018;28;20045;-73
2021/10/10 04:24:59;;;;;;;2.58;2.38;;;;;;;;;;5016057;28;20049;-73
2021/10/10 04:27:26;;;;;;;5.18;2.60;;;;;;;;;;5032913;28;20041;-74
2021/10/10 04:29:54;;;;;;;5.63;3.33;;;;;;;;;;5033416;28;20487;-73
2021/10/10 04:32:21;;;;;;;9.13;4.88;;;;;;;;;;5033401;28;20128;-73
2021/10/10 04:34:49;;;;;;;4.93;4.25;;;;;;;;;;5015575;28;20095;-73
2021/10/10 04:37:16;;;;;;;13.55;7.40;;;;;;;;;;5033700;28;20051;-73
2021/10/10 04:39:44;;;;;;;6.63;4.88;;;;;;;;;;5033347;28;20057;-73
2021/10/10 04:42:12;;;;;;;3.70;3.38;;;;;;;;;;5032865;28;20045;-74
2021/10/10 04:44:39;;;;;;;4.80;3.53;;;;;;;;;;5014796;28;20081;-72
2021/10/10 04:47:09;;;;;;;2.78;2.50;;;;;;;;;;5015842;28;20112;-73
2021/10/10 04:49:36;;;;;;;3.80;2.45;;;;;;;;;;5032761;28;20038;-74
2021/10/10 04:52:04;;;;;;;4.32;2.47;;;;;;;;;;5032851;28;20042;-73
2021/10/10 04:54:33;;;;;;;4.60;2.20;;;;;;;;;;5033255;28;20092;-73
2021/10/10 04:57:01;;;;;;;4.05;2.83;;;;;;;;;;5032842;28;20080;-73
2021/10/10 04:59:28;;;;;;;6.03;2.90;;;;;;;;;;5032856;28;20129;-73
2021/10/10 05:01:56;;;;;;;5.40;3.65;;;;;;;;;;5033003;28;20042;-74
2021/10/10 05:04:24;;;;;;;3.95;3.40;;;;;;;;;;5033122;28;20045;-73
2021/10/10 05:06:51;;;;;;;3.97;2.88;;;;;;;;;;5032945;28;20069;-74
2021/10/10 05:09:18;;;;;;;3.25;2.78;;;;;;;;;;5014944;28;20053;-74
2021/10/10 05:11:46;;;;;;;3.17;2.55;;;;;;;;;;5032428;28;20129;-73
2021/10/10 05:14:14;;;;;;;3.75;2.80;;;;;;;;;;5032867;28;20120;-75
2021/10/10 05:16:42;;;;;;;3.13;2.50;;;;;;;;;;5032897;28;20064;-73
2021/10/10 05:19:09;;;;;;;2.78;2.22;;;;;;;;;;5032920;28;20041;-74
2021/10/10 05:21:37;;;;;;;2.90;2.00;;;;;;;;;;5015284;28;20044;-73
2021/10/10 05:24:05;;;;;;;6.35;2.30;;;;;;;;;;5014921;28;20046;-73
2021/10/10 05:26:32;;;;;;;7.97;3.92;;;;;;;;;;5032287;28;20052;-74
2021/10/10 05:29:00;;;;;;;3.08;2.10;;;;;;;;;;5014927;28;20044;-73
2021/10/10 05:31:28;;;;;;;3.53;2.05;;;;;;;;;;5015043;28;20388;-74
2021/10/10 05:33:55;;;;;;;3.03;2.58;;;;;;;;;;5015246;28;20525;-74
2021/10/10 05:36:22;;;;;;;3.05;2.30;;;;;;;;;;5032234;28;20410;-73
2021/10/10 05:38:50;;;;;;;3.47;2.33;;;;;;;;;;5032531;28;20057;-74
2021/10/10 05:41:17;;;;;;;2.80;2.40;;;;;;;;;;5032602;28;20048;-74
2021/10/10 05:43:45;;;;;;;5.85;2.60;;;;;;;;;;5032508;28;20049;-73
2021/10/10 05:46:13;;;;;;;3.28;2.35;;;;;;;;;;5015284;28;20053;-73
2021/10/10 05:48:40;;;;;;;5.30;2.15;;;;;;;;;;5014713;28;20477;-74
2021/10/10 05:51:08;;;;;;;3.88;1.90;;;;;;;;;;5032086;28;20103;-73
2021/10/10 05:53:38;;;;;;;5.47;2.20;;;;;;;;;;5032445;28;20040;-73
2021/10/10 05:56:05;;;;;;;2.42;2.05;;;;;;;;;;5035047;28;20038;-74
2021/10/10 05:58:39;;;;;;;3.33;1.88;;;;;;;;;;5036148;28;20037;-74
2021/10/10 06:01:07;;;;;;;2.35;1.77;;;;;;;;;;5035863;28;20128;-73
2021/10/10 06:03:37;;;;;;;3.58;1.67;;;;;;;;;;5035858;28;20037;-73
2021/10/10 06:06:04;;;;;;;2.88;2.00;;;;;;;;;;5018620;28;20053;-74
2021/10/10 06:08:32;;;;;;;3.00;1.83;;;;;;;;;;5035603;28;20044;-73
2021/10/10 06:11:00;;;;;;;4.65;2.58;;;;;;;;;;5035864;28;20042;-74
2021/10/10 06:13:44;;;;;;;5.47;3.38;;;;;;;;;;5035764;28;20132;-74
2021/10/10 06:16:11;;;;;;;10.90;3.45;;;;;;;;;;5035948;28;20099;-74
2021/10/10 06:18:40;;;;;;;5.85;2.95;;;;;;;;;;5018721;28;20553;-74
2021/10/10 06:21:08;;;;;;;2.97;2.70;;;;;;;;;;5035636;28;20490;-73
2021/10/10 06:23:35;;;;;;;3.97;2.35;;;;;;;;;;5035346;28;20483;-73
2021/10/10 06:26:03;;;;;;;3.03;2.17;;;;;;;;;;5018085;28;20079;-74
2021/10/10 06:28:30;;;;;;;6.43;2.28;;;;;;;;;;5035643;28;20045;-74
2021/10/10 06:30:58;;;;;;;2.63;2.38;;;;;;;;;;5035683;28;20042;-73
2021/10/10 06:33:25;;;;;;;4.88;2.20;;;;;;;;;;5035721;28;20049;-73
2021/10/10 06:35:52;;;;;;;2.40;2.20;;;;;;;;;;5035671;28;20042;-74
2021/10/10 06:38:20;;;;;;;5.13;2.20;;;;;;;;;;5035264;28;20045;-74
2021/10/10 06:40:47;;;;;;;5.93;2.33;;;;;;;;;;5017830;28;20628;-74
2021/10/10 06:43:16;;;;;;;3.75;2.30;;;;;;;;;;5035386;28;20041;-74
2021/10/10 06:45:44;;;;;;;4.45;1.90;;;;;;;;;;5017822;28;20170;-74
2021/10/10 06:48:12;;;;;;;3.15;1.90;;;;;;;;;;5034999;28;20041;-74
2021/10/10 06:50:40;;;;;;;2.00;1.88;;;;;;;;;;5017380;28;20045;-74
2021/10/10 06:53:07;;;;;;;1.98;1.70;;;;;;;;;;5034792;28;20129;-74
2021/10/10 06:55:35;;;;;;;4.60;2.10;;;;;;;;;;5035205;28;20120;-75
2021/10/10 06:58:03;;;;;;;4.75;2.53;;;;;;;;;;5035216;28;20045;-75
2021/10/10 07:00:31;;;;;;;7.75;3.10;;;;;;;;;;5035073;28;20056;-75
2021/10/10 07:03:00;;;;;;;5.43;2.97;;;;;;;;;;5035156;28;20106;-74
2021/10/10 07:05:28;;;;;;;7.95;3.15;;;;;;;;;;5034891;28;20037;-74
2021/10/10 07:07:55;;;;;;;4.57;2.63;;;;;;;;;;5033909;28;20403;-75
2021/10/10 07:10:23;;;;;;;5.95;2.47;;;;;;;;;;5034756;28;20047;-74
2021/10/10 07:12:52;;;;;;;4.72;2.53;;;;;;;;;;5017257;28;20037;-75
2021/10/10 07:15:19;;;;;;;5.10;2.50;;;;;;;;;;5034364;28;20073;-73
2021/10/10 07:17:57;;;;;;;4.13;2.00;;;;;;;;;;5048495;28;20512;-73
2021/10/10 07:20:39;;;;;;;3.80;1.83;;;;;;;;;;5054240;28;20048;-75
2021/10/10 07:25:37;;;;;;;2.63;1.63;;;;;;;;;;5052819;28;20279;-75
2021/10/10 07:28:05;;;;;;;2.83;1.80;;;;;;;;;;5053707;28;20048;-73
2021/10/10 07:30:34;;;;;;;2.72;1.45;;;;;;;;;;5054382;28;20452;-76
2021/10/10 07:33:01;;;;;;;3.58;1.60;;;;;;;;;;5036769;28;20045;-74
2021/10/10 07:35:29;;;;;;;4.55;1.50;;;;;;;;;;5054139;28;20041;-75
2021/10/10 07:37:57;;;;;;;2.10;1.45;;;;;;;;;;5053713;28;20049;-78
2021/10/10 07:40:24;;;;;;;3.85;1.30;;;;;;;;;;5054607;28;20048;-77
2021/10/10 07:42:53;;;;;;;3.25;0.90;;;;;;;;;;5052762;28;20045;-74
2021/10/10 07:45:23;;;;;;;4.68;1.50;;;;;;;;;;5014414;28;20125;-78
2021/10/10 07:47:51;;;;;;;1.90;1.23;;;;;;;;;;5013579;28;20045;-75
2021/10/10 07:50:21;;;;;;;6.15;1.80;;;;;;;;;;5012133;28;20123;-75
2021/10/10 07:52:49;;;;;;;2.60;1.52;;;;;;;;;;5012671;28;20045;-75
2021/10/10 07:55:17;;;;;;;4.68;1.77;;;;;;;;;;5013231;28;20034;-74
2021/10/10 07:57:44;;;;;;;1.60;1.30;;;;;;;;;;5014409;28;20128;-74
2021/10/10 08:00:12;;;;;;;6.80;1.42;;;;;;;;;;5010470;28;20124;-75
2021/10/10 08:02:52;;;;;;;5.03;2.03;;;;;;;;;;5008448;28;20376;-75
2021/10/10 08:05:21;;;;;;;4.40;1.90;;;;;;;;;;5010723;28;20499;-71
2021/10/10 08:07:49;;;;;;;4.75;1.80;;;;;;;;;;5011637;28;20133;-71
2021/10/10 08:10:18;;;;;;;2.35;1.60;;;;;;;;;;5013529;28;20100;-75
2021/10/10 08:12:45;;;;;;;1.80;1.20;;;;;;;;;;5013568;28;20464;-72
2021/10/10 08:15:14;;;;;;;3.10;1.67;;;;;;;;;;5009812;28;20038;-73
2021/10/10 08:17:42;;;;;;;2.95;1.35;;;;;;;;;;5010751;28;20110;-75
2021/10/10 08:20:10;;;;;;;4.38;1.40;;;;;;;;;;5011402;28;20452;-73
2021/10/10 08:22:38;;;;;;;3.35;1.52;;;;;;;;;;5013544;28;20052;-74
2021/10/10 08:25:08;;;;;;;2.92;1.73;;;;;;;;;;5013542;28;20060;-74
2021/10/10 08:27:35;;;;;;;4.10;1.63;;;;;;;;;;5013457;28;20046;-73
2021/10/10 08:30:03;;;;;;;2.80;0.90;;;;;;;;;;5013678;28;20065;-74
2021/10/10 08:32:31;;;;;;;1.83;1.17;;;;;;;;;;5013641;28;20118;-76
2021/10/10 08:34:59;;;;;;;3.28;1.10;;;;;;;;;;5013361;28;20403;-72
2021/10/10 08:37:26;;;;;;;2.67;1.73;;;;;;;;;;5012373;28;20056;-72
2021/10/10 08:39:54;;;;;;;3.75;1.65;;;;;;;;;;5013880;28;20046;-77
2021/10/10 08:42:28;;;;;;;4.68;2.08;;;;;;;;;;5017170;28;20052;-77
2021/10/10 08:45:18;;;;;;;1.92;1.20;;;;;;;;;;5045701;28;20520;-73
2021/10/10 08:47:46;;;;;;;2.80;1.60;;;;;;;;;;5053041;28;20473;-74
2021/10/10 08:50:14;;;;;;;2.13;1.55;;;;;;;;;;5053064;28;20079;-71
2021/10/10 08:52:44;;;;;;;3.30;1.52;;;;;;;;;;5052332;28;20061;-76
2021/10/10 08:55:16;;;;;;;3.08;1.50;;;;;;;;;;5052758;28;20116;-75
2021/10/10 08:57:44;;;;;;;3.75;2.53;;;;;;;;;;5053210;28;20068;-76
2021/10/10 09:00:17;;;;;;;3.88;2.55;;;;;;;;;;5035520;28;20037;-75
2021/10/10 09:02:51;;;;;;;1.60;0.95;;;;;;;;;;5053347;28;20124;-73
2021/10/10 09:05:19;;;;;;;2.95;1.10;;;;;;;;;;5020024;28;20444;-72
2021/10/10 09:07:48;;;;;;;4.38;1.20;;;;;;;;;;5053162;28;20033;-76
2021/10/10 09:10:17;;;;;;;2.75;1.38;;;;;;;;;;5034917;28;20075;-73
2021/10/10 09:12:44;;;;;;;4.22;1.08;;;;;;;;;;5050344;28;20037;-74
2021/10/10 09:15:16;;;;;;;1.80;1.20;;;;;;;;;;5051818;28;20045;-77
2021/10/10 09:18:03;;;;;;;1.98;1.20;;;;;;;;;;5052370;28;20121;-73
2021/10/10 09:20:36;;;;;;;1.63;0.80;;;;;;;;;;5053306;28;20051;-76
2021/10/10 09:23:05;;;;;;;2.88;1.10;;;;;;;;;;5051455;28;20047;-77
2021/10/10 09:25:34;;;;;;;2.00;0.80;;;;;;;;;;5052561;28;20037;-76
2021/10/10 09:28:18;;;;;;;1.88;1.13;;;;;;;;;;5052719;28;20072;-73
2021/10/10 09:30:47;;;;;;;3.17;1.05;;;;;;;;;;5054730;28;20039;-74
2021/10/10 09:33:15;;;;;;;4.30;1.45;;;;;;;;;;5056433;28;20044;-73
2021/10/10 09:35:43;;;;;;;2.78;0.93;;;;;;;;;;5056756;28;20037;-76
2021/10/10 09:38:20;;;;;;;3.22;1.15;;;;;;;;;;5039130;28;20056;-74
2021/10/10 09:40:56;;;;;;;1.83;1.10;;;;;;;;;;5057017;28;20075;-76
2021/10/10 09:43:23;;;;;;;2.25;0.90;;;;;;;;;;5056267;28;20063;-75
2021/10/10 09:45:54;;;;;;;2.30;1.00;;;;;;;;;;5056118;28;20478;-77
2021/10/10 09:48:29;;;;;;;1.30;0.88;;;;;;;;;;5056278;28;20045;-76
2021/10/10 09:50:57;;;;;;;3.17;0.98;;;;;;;;;;5056182;28;20049;-74
2021/10/10 09:53:32;;;;;;;1.55;0.82;;;;;;;;;;5056420;28;20079;-74
2021/10/10 09:56:03;;;;;;;2.90;0.88;;;;;;;;;;5056563;28;20116;-74
2021/10/10 09:58:39;;;;;;;1.85;1.20;;;;;;;;;;5056229;28;20124;-74
2021/10/10 10:01:18;;;;;;;4.30;1.13;;;;;;;;;;5055440;28;20037;-71
2021/10/10 10:04:02;;;;;;;1.65;0.90;;;;;;;;;;5037922;28;20045;-77
2021/10/10 10:06:34;;;;;;;3.78;1.30;;;;;;;;;;5055710;28;20056;-76
2021/10/10 10:09:06;;;;;;;1.83;1.17;;;;;;;;;;5038033;28;20471;-77
2021/10/10 10:11:36;;;;;;;3.28;1.65;;;;;;;;;;5038561;28;20037;-77
2021/10/10 10:14:10;;;;;;;3.25;2.70;;;;;;;;;;5055328;28;20374;-74
2021/10/10 10:16:41;;;;;;;1.70;1.10;;;;;;;;;;5037702;28;20512;-73
2021/10/10 10:19:14;;;;;;;1.67;1.08;;;;;;;;;;5056008;28;20055;-76
2021/10/10 10:21:42;;;;;;;2.85;2.10;;;;;;;;;;5051074;28;20425;-74
2021/10/10 10:24:14;;;;;;;2.65;1.52;;;;;;;;;;5055470;28;20055;-73
2021/10/10 10:26:42;;;;;;;3.05;1.15;;;;;;;;;;5055449;28;20049;-73
2021/10/10 10:29:14;;;;;;;2.47;1.55;;;;;;;;;;5055125;28;20051;-77
2021/10/10 10:31:41;;;;;;;;;;;;;;;;;;5038457;28;20520;-74
2021/10/10 10:34:17;;;;;;;1.38;0.93;;;;;;;;;;5037620;28;20281;-77
2021/10/10 10:36:54;;;;;;;1.98;1.40;;;;;;;;;;5055755;28;20045;-73
2021/10/10 10:39:48;;;;;;;2.33;0.95;;;;;;;;;;5055600;28;20053;-77
2021/10/10 10:42:24;;;;;;;1.55;0.80;;;;;;;;;;5053977;28;20119;-73
2021/10/10 10:44:52;;;;;;;1.80;0.90;;;;;;;;;;5054745;28;20055;-77
2021/10/10 10:47:21;;;;;;;1.65;0.85;;;;;;;;;;5055131;28;20126;-74
2021/10/10 10:49:53;;;;;;;2.42;1.00;;;;;;;;;;5054078;28;20113;-73
2021/10/10 10:52:22;;;;;;;1.67;0.70;;;;;;;;;;5055366;28;20628;-74
2021/10/10 10:54:53;;;;;;;1.17;1.00;;;;;;;;;;5055248;28;20087;-73
2021/10/10 10:57:47;;;;;;;1.50;0.80;;;;;;;;;;5054909;28;20124;-77
2021/10/10 11:00:20;;;;;;;2.38;1.10;;;;;;;;;;5039303;28;20090;-73
2021/10/10 11:03:02;;;;;;;2.20;1.50;;;;;;;;;;5055005;28;20051;-77
2021/10/10 11:05:31;;;;;;;;;;;;;;;;;;5055383;28;20044;-73
2021/10/10 11:08:02;;;;;;;1.33;0.98;;;;;;;;;;5054628;28;19996;-74
2021/10/10 11:10:30;;;;;;;2.53;0.80;;;;;;;;;;5054945;28;20076;-73
2021/10/10 11:13:08;;;;;;;3.45;1.90;;;;;;;;;;5054322;28;20347;-74
2021/10/10 11:15:51;;;;;;;2.13;1.13;;;;;;;;;;5054789;28;20047;-73
2021/10/10 11:18:19;;;;;;;3.30;2.00;;;;;;;;;;5037012;28;20095;-75
2021/10/10 11:20:54;;;;;;;3.53;1.02;;;;;;;;;;5054502;28;20032;-77
2021/10/10 11:23:22;;;;;;;3.35;1.58;;;;;;;;;;5036686;28;20517;-74
2021/10/10 11:25:51;;;;;;;2.88;1.38;;;;;;;;;;5054456;28;20040;-77
2021/10/10 11:28:19;;;;;;;11.88;7.05;;;;;;;;;;5053982;28;20095;-77
2021/10/10 11:30:47;;;;;;;8.98;6.68;;;;;;;;;;5054476;28;20049;-73
2021/10/10 11:33:16;;;;;;;23.50;18.42;;;;;;;;;;5054192;28;20033;-77
2021/10/10 11:35:49;;;;;;;4.15;2.20;;;;;;;;;;5054155;28;20506;-73
2021/10/10 11:38:17;;;;;;;1.90;1.00;;;;;;;;;;5054334;28;20044;-76
2021/10/10 11:40:59;;;;;;;3.72;2.25;;;;;;;;;;5054470;28;20777;-75
2021/10/10 11:43:28;;;;;;;4.32;2.70;;;;;;;;;;5153112;23;20052;-76
2021/10/10 11:45:57;;;;;;;2.80;1.00;;;;;;;;;;5076157;28;20044;-74
2021/10/10 11:48:32;;;;;;;2.15;1.80;;;;;;;;;;5092934;28;20063;-74
2021/10/10 11:51:00;;;;;;;2.75;1.65;;;;;;;;;;5111489;28;20431;-72
2021/10/10 11:53:43;;;;;;;3.88;1.77;;;;;;;;;;5114346;28;20041;-74
2021/10/10 11:56:14;;;;;;;2.90;1.67;;;;;;;;;;5111970;28;20093;-74
2021/10/10 11:58:41;;;;;;;2.70;2.05;;;;;;;;;;5096506;28;20047;-72
2021/10/10 12:01:12;;;;;;;2.80;2.55;;;;;;;;;;5114358;28;20047;-73
2021/10/10 12:03:45;;;;;;;6.27;3.20;;;;;;;;;;5114248;28;20473;-74
2021/10/10 12:06:21;;;;;;;5.93;3.58;;;;;;;;;;5114305;28;20050;-75
2021/10/10 12:08:49;;;;;;;8.68;3.08;;;;;;;;;;5114304;28;20395;-74
2021/10/10 12:11:18;;;;;;;8.88;2.97;;;;;;;;;;5113785;28;20539;-74
2021/10/10 12:13:55;;;;;;;5.55;3.60;;;;;;;;;;5114310;28;20039;-72
2021/10/10 12:16:23;;;;;;;3.35;2.60;;;;;;;;;;5113770;28;20040;-74
2021/10/10 12:18:56;;;;;;;2.58;1.65;;;;;;;;;;5114020;28;20050;-72
2021/10/10 12:21:31;;;;;;;4.25;1.77;;;;;;;;;;5113844;28;20108;-75
2021/10/10 12:24:03;;;;;;;3.40;2.00;;;;;;;;;;5113946;28;20043;-74
2021/10/10 12:26:43;;;;;;;2.60;1.60;;;;;;;;;;5095537;28;20118;-72
2021/10/10 12:29:25;;;;;;;3.60;1.80;;;;;;;;;;5095734;28;20039;-75
2021/10/10 12:31:53;;;;;;;;;;;;;;;;;;5114493;28;20119;-72
2021/10/10 12:34:30;;;;;;;2.45;1.80;;;;;;;;;;5113996;28;19919;-75
2021/10/10 12:37:22;;;;;;;4.72;3.08;;;;;;;;;;5114023;28;20114;-72
2021/10/10 12:39:51;;;;;;;3.40;1.90;;;;;;;;;;5113485;28;20134;-72
2021/10/10 12:42:21;;;;;;;4.35;2.40;;;;;;;;;;5100270;28;20044;-73
2021/10/10 12:45:10;;;;;;;4.20;2.30;;;;;;;;;;5101963;28;20063;-73
2021/10/10 12:47:40;;;;;;;2.97;2.05;;;;;;;;;;5098230;28;20039;-74
2021/10/10 12:50:11;;;;;;;3.83;1.88;;;;;;;;;;5110333;28;20059;-74
2021/10/10 12:52:39;;;;;;;2.33;1.65;;;;;;;;;;5111091;28;20046;-73
2021/10/10 12:55:07;;;;;;;2.85;1.27;;;;;;;;;;5110417;28;20488;-74
2021/10/10 12:57:39;;;;;;;3.70;1.80;;;;;;;;;;5110925;28;20070;-73
2021/10/10 13:00:17;;;;;;;2.17;1.50;;;;;;;;;;5106099;28;20063;-72
2021/10/10 13:02:47;;;;;;;4.03;1.60;;;;;;;;;;5081487;28;20094;-73
2021/10/10 13:05:15;;;;;;;4.57;1.50;;;;;;;;;;5088947;28;20047;-73
2021/10/10 13:07:44;;;;;;;2.20;1.42;;;;;;;;;;5090938;28;20044;-73
2021/10/10 13:10:12;;;;;;;2.38;1.45;;;;;;;;;;5072964;28;20067;-74
2021/10/10 13:12:40;;;;;;;1.40;1.10;;;;;;;;;;5090931;28;20071;-74
2021/10/10 13:15:10;;;;;;;2.50;1.45;;;;;;;;;;5073044;28;20046;-73
2021/10/10 13:17:38;;;;;;;3.20;1.50;;;;;;;;;;5089363;28;20083;-72
2021/10/10 13:20:06;;;;;;;2.95;1.15;;;;;;;;;;5090977;28;20460;-73
2021/10/10 13:22:35;;;;;;;3.22;1.90;;;;;;;;;;5072983;28;20401;-76
2021/10/10 13:25:07;;;;;;;3.78;1.95;;;;;;;;;;5089985;28;20093;-74
2021/10/10 13:27:36;;;;;;;5.68;2.58;;;;;;;;;;5090888;28;20048;-74
2021/10/10 13:30:04;;;;;;;5.25;2.30;;;;;;;;;;5090555;28;20173;-72
2021/10/10 13:32:31;;;;;;;3.13;2.13;;;;;;;;;;5091794;28;20123;-73
2021/10/10 13:34:59;;;;;;;4.40;2.20;;;;;;;;;;5092698;28;20046;-74
2021/10/10 13:37:27;;;;;;;4.32;2.38;;;;;;;;;;5091334;28;20115;-74
2021/10/10 13:39:54;;;;;;;4.25;2.33;;;;;;;;;;5091334;28;20052;-74
2021/10/10 13:42:22;;;;;;;4.65;2.70;;;;;;;;;;5092860;28;20036;-74
2021/10/10 13:44:50;;;;;;;2.35;1.20;;;;;;;;;;5073558;28;20048;-74
2021/10/10 13:47:18;;;;;;;2.13;1.60;;;;;;;;;;5054383;28;20053;-74
2021/10/10 13:49:48;;;;;;;2.25;1.10;;;;;;;;;;5054747;28;20092;-72
2021/10/10 13:52:16;;;;;;;1.40;1.30;;;;;;;;;;5072176;28;20039;-73
2021/10/10 13:54:46;;;;;;;2.60;1.67;;;;;;;;;;5071976;28;20033;-73
2021/10/10 13:57:13;;;;;;;3.38;1.10;;;;;;;;;;5054254;28;20051;-73
2021/10/10 13:59:41;;;;;;;3.55;1.30;;;;;;;;;;5037579;28;20139;-73
2021/10/10 14:02:08;;;;;;;1.35;1.00;;;;;;;;;;5054171;28;20063;-73
2021/10/10 14:04:39;;;;;;;3.00;1.45;;;;;;;;;;5037359;28;20106;-74
2021/10/10 14:07:06;;;;;;;3.05;1.80;;;;;;;;;;5071720;28;20045;-73
2021/10/10 14:09:35;;;;;;;3.97;1.95;;;;;;;;;;5071974;28;20047;-74
2021/10/10 14:12:03;;;;;;;6.82;1.80;;;;;;;;;;5054419;28;20047;-74
2021/10/10 14:14:30;;;;;;;4.00;1.40;;;;;;;;;;5054361;28;20474;-73
2021/10/10 14:16:58;;;;;;;1.88;1.27;;;;;;;;;;5074696;28;20120;-73
2021/10/10 14:19:25;;;;;;;4.43;1.60;;;;;;;;;;5040738;28;20051;-73
2021/10/10 14:21:54;;;;;;;3.97;1.40;;;;;;;;;;5057519;28;20048;-74
2021/10/10 14:24:22;;;;;;;2.33;1.52;;;;;;;;;;5075442;28;20075;-74
2021/10/10 14:26:49;;;;;;;1.52;1.42;;;;;;;;;;5074957;28;20044;-74
2021/10/10 14:29:17;;;;;;;2.17;1.20;;;;;;;;;;5057373;28;20143;-74
2021/10/10 14:31:46;;;;;;;2.00;1.17;;;;;;;;;;5075557;28;20059;-73
2021/10/10 14:34:14;;;;;;;1.45;1.23;;;;;;;;;;5040476;28;20051;-74
2021/10/10 14:36:41;;;;;;;2.08;0.93;;;;;;;;;;5057190;28;20415;-73
2021/10/10 14:39:15;;;;;;;3.03;1.10;;;;;;;;;;5057659;28;20493;-73
2021/10/10 14:41:52;;;;;;;2.95;0.95;;;;;;;;;;5075010;28;20386;-72
2021/10/10 14:49:39;;;;;;;2.92;0.88;;;;;;;;;;5063608;28;20064;-73
2021/10/10 14:52:08;;;;;;;0.98;0.80;;;;;;;;;;5094909;28;20040;-73
2021/10/10 14:54:36;;;;;;;3.08;1.00;;;;;;;;;;5093992;28;20040;-73
2021/10/10 14:57:06;;;;;;;1.42;0.85;;;;;;;;;;5095149;28;20032;-73
2021/10/10 14:59:35;;;;;;;3.83;1.20;;;;;;;;;;5095095;28;20048;-74
2021/10/10 15:02:03;;;;;;;2.38;1.00;;;;;;;;;;5077332;28;20036;-74
2021/10/10 15:04:30;;;;;;;2.50;1.10;;;;;;;;;;5094434;28;20046;-74
2021/10/10 15:07:00;;;;;;;4.00;1.13;;;;;;;;;;5094612;28;20046;-74
2021/10/10 15:09:28;;;;;;;2.55;1.17;;;;;;;;;;5094665;28;20048;-73